Time,TemperatureF,DewpointF,PressureIn,WindDirection,WindDirectionDegrees,WindSpeedMPH,WindSpeedGustMPH,Humidity,HourlyPrecipIn,Conditions,Clouds,dailyrainin,SolarRadiationWatts/m^2,SoftwareType,DateUTC
2013-09-14 00:01:00,60.6,38.6,30.00,East,90,0.0,0.0,44,0.00,CLR,SCT,0.00,0.0,WeatherDisplay:10.37,2013-09-14 05:01:00,
2013-09-14 00:06:00,60.6,38.6,30.00,East,90,0.0,0.0,44,0.00,CLR,SCT,0.00,0.0,WeatherDisplay:10.37,2013-09-14 05:06:00,
2013-09-14 00:11:00,60.4,38.4,30.00,ESE,112,1.1,2.3,44,0.00,CLR,SCT,0.00,0.0,WeatherDisplay:10.37,2013-09-14 05:11:00,
2013-09-14 00:16:00,60.4,38.4,30.00,ESE,112,1.4,2.3,44,0.00,CLR,SCT,0.00,0.0,WeatherDisplay:10.37,2013-09-14 05:16:00,
2013-09-14 00:21:00,60.4,38.4,30.00,East,90,1.1,1.4,44,0.00,CLR,SCT,0.00,0.0,WeatherDisplay:10.37,2013-09-14 05:21:00,
2013-09-14 00:26:00,60.3,38.2,30.00,NE,45,0.0,1.4,44,0.00,CLR,SCT,0.00,0.0,WeatherDisplay:10.37,2013-09-14 05:26:00,
2013-09-14 00:31:00,60.1,38.7,30.00,East,90,0.0,1.1,45,0.00,CLR,SCT,0.00,0.0,WeatherDisplay:10.37,2013-09-14 05:31:00,
2013-09-14 00:36:00,59.9,38.5,30.00,ENE,68,0.0,0.0,45,0.00,CLR,SCT,0.00,0.0,WeatherDisplay:10.37,2013-09-14 05:36:00,
2013-09-14 00:41:00,59.7,38.9,30.00,ESE,112,0.0,0.0,46,0.00,CLR,SCT,0.00,0.0,WeatherDisplay:10.37,2013-09-14 05:41:00,
2013-09-14 00:46:00,59.7,38.9,30.03,East,90,0.0,0.0,46,0.00,CLR,SCT,0.00,0.0,WeatherDisplay:10.37,2013-09-14 05:46:00,
2013-09-14 00:51:00,59.4,38.6,30.03,East,90,0.0,0.0,46,0.00,CLR,SCT,0.00,0.0,WeatherDisplay:10.37,2013-09-14 05:51:00,
2013-09-14 00:56:00,59.4,38.6,30.03,ESE,112,1.4,2.3,46,0.00,CLR,SCT,0.00,0.0,WeatherDisplay:10.37,2013-09-14 05:56:00,
2013-09-14 01:01:00,59.4,38.6,30.00,ESE,112,0.0,1.6,46,0.00,CLR,SCT,0.00,0.0,WeatherDisplay:10.37,2013-09-14 06:01:00,
2013-09-14 01:06:00,59.2,38.4,30.00,SSE,158,1.4,2.3,46,0.00,CLR,SCT,0.00,0.0,WeatherDisplay:10.37,2013-09-14 06:06:00,
2013-09-14 01:11:00,59.2,38.4,30.00,ESE,112,1.1,2.3,46,0.00,CLR,SCT,0.00,0.0,WeatherDisplay:10.37,2013-09-14 06:11:00,
2013-09-14 01:16:00,59.2,38.4,30.00,East,90,1.4,2.3,46,0.00,CLR,SCT,0.00,0.0,WeatherDisplay:10.37,2013-09-14 06:16:00,
2013-09-14 01:21:00,59.2,38.4,30.00,ESE,112,0.0,1.4,46,0.00,CLR,SCT,0.00,0.0,WeatherDisplay:10.37,2013-09-14 06:21:00,
2013-09-14 01:26:00,59.0,38.8,30.00,ESE,112,0.0,1.6,47,0.00,CLR,SCT,0.00,0.0,WeatherDisplay:10.37,2013-09-14 06:26:00,
2013-09-14 01:31:00,59.0,38.8,29.97,ESE,112,1.1,2.3,47,0.00,CLR,SCT,0.00,0.0,WeatherDisplay:10.37,2013-09-14 06:31:00,
2013-09-14 01:36:00,59.0,38.8,29.97,East,90,1.1,2.3,47,0.00,CLR,SCT,0.00,0.0,WeatherDisplay:10.37,2013-09-14 06:36:00,
2013-09-14 01:41:00,58.8,38.6,29.97,East,90,1.6,2.3,47,0.00,CLR,SCT,0.00,0.0,WeatherDisplay:10.37,2013-09-14 06:41:00,
2013-09-14 01:46:00,58.8,39.2,30.00,ESE,112,1.6,2.3,48,0.00,CLR,SCT,0.00,0.0,WeatherDisplay:10.37,2013-09-14 06:46:00,
2013-09-14 01:51:00,58.8,39.2,30.00,East,90,2.0,3.5,48,0.00,CLR,SCT,0.00,0.0,WeatherDisplay:10.37,2013-09-14 06:51:00,
2013-09-14 01:56:00,58.6,39.0,30.00,ESE,112,0.9,1.1,48,0.00,CLR,SCT,0.00,0.0,WeatherDisplay:10.37,2013-09-14 06:56:00,
2013-09-14 02:01:00,58.5,39.4,30.00,South,180,0.0,0.0,49,0.00,CLR,SCT,0.00,0.0,WeatherDisplay:10.37,2013-09-14 07:01:00,
2013-09-14 02:06:00,58.5,38.8,30.00,East,90,1.6,2.3,48,0.00,CLR,SCT,0.00,0.0,WeatherDisplay:10.37,2013-09-14 07:06:00,
2013-09-14 02:11:00,58.3,38.7,30.00,East,90,0.9,2.3,48,0.00,CLR,SCT,0.00,0.0,WeatherDisplay:10.37,2013-09-14 07:11:00,
2013-09-14 02:16:00,58.1,38.5,30.00,East,90,1.1,1.1,48,0.00,CLR,SCT,0.00,0.0,WeatherDisplay:10.37,2013-09-14 07:16:00,
2013-09-14 02:21:00,57.9,38.3,30.00,ESE,112,1.1,2.3,48,0.00,CLR,SCT,0.00,0.0,WeatherDisplay:10.37,2013-09-14 07:21:00,
2013-09-14 02:26:00,57.7,38.7,30.00,East,90,1.4,1.6,49,0.00,CLR,SCT,0.00,0.0,WeatherDisplay:10.37,2013-09-14 07:26:00,
2013-09-14 02:31:00,57.7,38.7,30.00,ENE,68,1.4,2.3,49,0.00,CLR,SCT,0.00,0.0,WeatherDisplay:10.37,2013-09-14 07:31:00,
2013-09-14 02:36:00,57.6,38.5,30.00,East,90,1.4,2.3,49,0.00,CLR,SCT,0.00,0.0,WeatherDisplay:10.37,2013-09-14 07:36:00,
2013-09-14 02:41:00,57.4,38.4,30.00,ESE,112,1.1,2.3,49,0.00,CLR,SCT,0.00,0.0,WeatherDisplay:10.37,2013-09-14 07:41:00,
2013-09-14 02:46:00,57.2,38.2,30.00,East,90,1.4,2.3,49,0.00,CLR,SCT,0.00,0.0,WeatherDisplay:10.37,2013-09-14 07:46:00,
2013-09-14 02:51:00,57.2,38.7,30.00,East,90,2.0,2.4,50,0.00,CLR,SCT,0.00,0.0,WeatherDisplay:10.37,2013-09-14 07:51:00,
2013-09-14 02:56:00,56.8,38.9,30.00,East,90,1.4,1.6,51,0.00,CLR,SCT,0.00,0.0,WeatherDisplay:10.37,2013-09-14 07:56:00,
2013-09-14 03:01:00,56.8,39.4,30.00,East,90,2.2,2.4,52,0.00,CLR,SCT,0.00,0.0,WeatherDisplay:10.37,2013-09-14 08:01:00,
2013-09-14 03:06:00,56.8,39.9,30.00,ENE,68,2.2,2.3,53,0.00,CLR,SCT,0.00,0.0,WeatherDisplay:10.37,2013-09-14 08:06:00,
2013-09-14 03:11:00,56.8,39.4,30.00,SSE,158,1.6,2.4,52,0.00,CLR,SCT,0.00,0.0,WeatherDisplay:10.37,2013-09-14 08:11:00,
2013-09-14 03:16:00,56.8,39.4,30.00,ESE,112,2.0,2.3,52,0.00,CLR,SCT,0.00,0.0,WeatherDisplay:10.37,2013-09-14 08:16:00,
2013-09-14 03:21:00,56.7,39.2,30.00,ESE,112,0.9,2.3,52,0.00,CLR,SCT,0.00,0.0,WeatherDisplay:10.37,2013-09-14 08:21:00,
2013-09-14 03:26:00,56.7,39.2,30.00,ESE,112,1.6,3.5,52,0.00,CLR,SCT,0.00,0.0,WeatherDisplay:10.37,2013-09-14 08:26:00,
2013-09-14 03:31:00,56.5,39.1,30.00,ESE,112,1.6,2.3,52,0.00,CLR,SCT,0.00,0.0,WeatherDisplay:10.37,2013-09-14 08:31:00,
2013-09-14 03:36:00,56.5,39.1,30.00,ESE,112,0.0,2.3,52,0.00,CLR,SCT,0.00,0.0,WeatherDisplay:10.37,2013-09-14 08:36:00,
2013-09-14 03:41:00,56.3,39.4,30.00,ESE,112,2.2,2.6,53,0.00,CLR,SCT,0.00,0.0,WeatherDisplay:10.37,2013-09-14 08:41:00,
2013-09-14 03:46:00,56.3,39.4,30.00,ESE,112,0.0,1.6,53,0.00,CLR,SCT,0.00,0.0,WeatherDisplay:10.37,2013-09-14 08:46:00,
2013-09-14 03:51:00,56.1,39.2,30.00,East,90,1.4,1.6,53,0.00,CLR,SCT,0.00,0.0,WeatherDisplay:10.37,2013-09-14 08:51:00,
2013-09-14 03:56:00,56.1,39.2,30.00,ESE,112,1.1,3.5,53,0.00,CLR,SCT,0.00,0.0,WeatherDisplay:10.37,2013-09-14 08:56:00,
2013-09-14 04:01:00,55.9,39.5,30.00,East,90,1.4,2.3,54,0.00,CLR,SCT,0.00,0.0,WeatherDisplay:10.37,2013-09-14 09:01:00,
2013-09-14 04:06:00,55.9,39.5,30.00,East,90,1.6,2.4,54,0.00,CLR,SCT,0.00,0.0,WeatherDisplay:10.37,2013-09-14 09:06:00,
2013-09-14 04:11:00,55.9,40.0,30.00,ENE,68,2.2,3.8,55,0.00,CLR,SCT,0.00,0.0,WeatherDisplay:10.37,2013-09-14 09:11:00,
2013-09-14 04:16:00,55.9,39.5,30.00,ESE,112,1.4,2.3,54,0.00,CLR,SCT,0.00,0.0,WeatherDisplay:10.37,2013-09-14 09:16:00,
2013-09-14 04:21:00,55.9,40.0,30.00,ESE,112,1.6,2.4,55,0.00,CLR,SCT,0.00,0.0,WeatherDisplay:10.37,2013-09-14 09:21:00,
2013-09-14 04:26:00,55.9,40.0,30.00,ESE,112,2.2,2.3,55,0.00,CLR,SCT,0.00,0.0,WeatherDisplay:10.37,2013-09-14 09:26:00,
2013-09-14 04:31:00,55.9,40.0,30.00,ESE,112,2.4,3.6,55,0.00,CLR,SCT,0.00,0.0,WeatherDisplay:10.37,2013-09-14 09:31:00,
2013-09-14 04:36:00,55.8,39.8,30.00,ESE,112,2.2,3.5,55,0.00,CLR,SCT,0.00,0.0,WeatherDisplay:10.37,2013-09-14 09:36:00,
2013-09-14 04:41:00,55.8,40.3,30.00,ESE,112,2.2,2.4,56,0.00,CLR,SCT,0.00,0.0,WeatherDisplay:10.37,2013-09-14 09:41:00,
2013-09-14 04:46:00,55.9,40.5,30.00,ESE,112,2.0,3.5,56,0.00,CLR,SCT,0.00,0.0,WeatherDisplay:10.37,2013-09-14 09:46:00,
2013-09-14 04:51:00,55.9,40.5,30.00,ESE,112,2.0,2.3,56,0.00,CLR,SCT,0.00,0.0,WeatherDisplay:10.37,2013-09-14 09:51:00,
2013-09-14 04:56:00,55.9,40.5,30.00,East,90,2.4,2.6,56,0.00,CLR,SCT,0.00,0.0,WeatherDisplay:10.37,2013-09-14 09:56:00,
2013-09-14 05:01:00,55.9,40.9,29.97,ESE,112,2.2,3.5,57,0.00,CLR,SCT,0.00,0.0,WeatherDisplay:10.37,2013-09-14 10:01:00,
2013-09-14 05:06:00,56.1,41.1,29.97,ESE,112,1.6,2.4,57,0.00,CLR,SCT,0.00,0.0,WeatherDisplay:10.37,2013-09-14 10:06:00,
2013-09-14 05:11:00,56.3,41.3,29.97,ENE,68,2.0,2.9,57,0.00,CLR,SCT,0.00,0.0,WeatherDisplay:10.37,2013-09-14 10:11:00,
2013-09-14 05:16:00,56.5,41.4,30.00,SSE,158,2.4,3.5,57,0.00,CLR,SCT,0.00,0.0,WeatherDisplay:10.37,2013-09-14 10:16:00,
2013-09-14 05:21:00,56.5,41.4,30.00,ESE,112,3.1,4.7,57,0.00,CLR,SCT,0.00,0.0,WeatherDisplay:10.37,2013-09-14 10:21:00,
2013-09-14 05:26:00,56.7,41.1,30.00,SE,135,2.6,3.5,56,0.00,CLR,SCT,0.00,0.0,WeatherDisplay:10.37,2013-09-14 10:26:00,
2013-09-14 05:31:00,56.7,40.7,30.00,NNE,22,3.3,5.8,55,0.00,CLR,SCT,0.00,0.0,WeatherDisplay:10.37,2013-09-14 10:31:00,
2013-09-14 05:36:00,56.8,40.4,30.00,ESE,112,2.6,5.8,54,0.00,CLR,SCT,0.00,0.0,WeatherDisplay:10.37,2013-09-14 10:36:00,
2013-09-14 05:41:00,57.0,40.0,30.00,ESE,112,3.1,4.9,53,0.00,CLR,SCT,0.00,0.0,WeatherDisplay:10.37,2013-09-14 10:41:00,
2013-09-14 05:46:00,57.0,39.6,30.00,SE,135,2.9,3.5,52,0.00,CLR,SCT,0.00,0.0,WeatherDisplay:10.37,2013-09-14 10:46:00,
2013-09-14 05:51:00,57.0,39.6,30.00,South,180,3.3,5.8,52,0.00,CLR,SCT,0.00,0.0,WeatherDisplay:10.37,2013-09-14 10:51:00,
2013-09-14 05:56:00,57.2,38.7,30.00,SSW,202,2.6,4.6,50,0.00,CLR,SCT,0.00,0.0,WeatherDisplay:10.37,2013-09-14 10:56:00,
2013-09-14 06:01:00,57.0,38.5,30.00,SSE,158,4.0,4.0,50,0.00,CLR,SCT,0.00,0.0,WeatherDisplay:10.37,2013-09-14 11:01:00,
2013-09-14 06:06:00,57.0,38.5,30.00,ESE,112,3.3,3.5,50,0.00,CLR,SCT,0.00,0.0,WeatherDisplay:10.37,2013-09-14 11:06:00,
2013-09-14 06:11:00,57.0,38.0,30.00,SSE,158,4.0,6.9,49,0.00,CLR,SCT,0.00,0.0,WeatherDisplay:10.37,2013-09-14 11:11:00,
2013-09-14 06:16:00,57.2,37.7,30.00,ESE,112,3.3,5.8,48,0.00,CLR,SCT,0.00,0.0,WeatherDisplay:10.37,2013-09-14 11:16:00,
2013-09-14 06:21:00,57.0,37.5,30.00,ESE,112,2.9,4.6,48,0.00,CLR,SCT,0.00,0.0,WeatherDisplay:10.37,2013-09-14 11:21:00,
2013-09-14 06:26:00,57.0,37.5,30.00,ESE,112,3.6,4.6,48,0.00,CLR,SCT,0.00,0.0,WeatherDisplay:10.37,2013-09-14 11:26:00,
2013-09-14 06:31:00,57.0,38.0,30.00,ESE,112,3.3,4.7,49,0.00,CLR,SCT,0.00,0.0,WeatherDisplay:10.37,2013-09-14 11:31:00,
2013-09-14 06:36:00,56.8,37.9,30.00,SE,135,2.6,4.6,49,0.00,CLR,SCT,0.00,0.0,WeatherDisplay:10.37,2013-09-14 11:36:00,
2013-09-14 06:41:00,56.7,37.7,30.00,SSE,158,2.9,4.0,49,0.00,CLR,SCT,0.00,0.0,WeatherDisplay:10.37,2013-09-14 11:41:00,
2013-09-14 06:46:00,56.7,37.7,30.00,SSE,158,3.1,4.6,49,0.00,CLR,SCT,0.00,0.0,WeatherDisplay:10.37,2013-09-14 11:46:00,
2013-09-14 06:51:00,56.5,38.1,30.00,SSW,202,3.6,4.6,50,0.00,CLR,SCT,0.00,0.0,WeatherDisplay:10.37,2013-09-14 11:51:00,
2013-09-14 06:56:00,56.5,38.1,30.00,ESE,112,2.4,5.8,50,0.00,CLR,SCT,0.00,0.0,WeatherDisplay:10.37,2013-09-14 11:56:00,
2013-09-14 07:01:00,56.3,37.9,30.00,SE,135,2.6,4.6,50,0.00,CLR,SCT,0.00,0.0,WeatherDisplay:10.37,2013-09-14 12:01:00,
2013-09-14 07:06:00,56.3,37.9,30.00,ESE,112,4.3,4.3,50,0.00,CLR,SCT,0.00,0.0,WeatherDisplay:10.37,2013-09-14 12:06:00,
2013-09-14 07:11:00,56.3,38.4,30.00,ESE,112,3.3,5.8,51,0.00,CLR,SCT,0.00,0.0,WeatherDisplay:10.37,2013-09-14 12:11:00,
2013-09-14 07:16:00,56.3,38.4,30.00,SSE,158,2.9,6.9,51,0.00,CLR,SCT,0.00,0.0,WeatherDisplay:10.37,2013-09-14 12:16:00,
2013-09-14 07:21:00,56.3,38.4,30.00,SSW,202,4.0,6.9,51,0.00,CLR,SCT,0.00,0.0,WeatherDisplay:10.37,2013-09-14 12:21:00,
2013-09-14 07:26:00,56.3,38.4,30.00,South,180,4.5,8.1,51,0.00,CLR,SCT,0.00,0.0,WeatherDisplay:10.37,2013-09-14 12:26:00,
2013-09-14 07:31:00,56.3,38.4,30.00,East,90,3.1,4.6,51,0.00,CLR,SCT,0.00,21.0,WeatherDisplay:10.37,2013-09-14 12:31:00,
2013-09-14 07:36:00,56.3,38.4,30.00,South,180,4.0,5.8,51,0.00,CLR,SCT,0.00,0.0,WeatherDisplay:10.37,2013-09-14 12:36:00,
2013-09-14 07:41:00,56.3,38.9,30.00,SSE,158,3.8,5.8,52,0.00,OVC,SCT,0.00,0.0,WeatherDisplay:10.37,2013-09-14 12:41:00,
2013-09-14 07:46:00,56.3,38.9,30.00,East,90,3.6,4.6,52,0.00,OVC,SCT,0.00,0.0,WeatherDisplay:10.37,2013-09-14 12:46:00,
2013-09-14 07:51:00,56.3,38.4,30.00,ESE,112,4.3,5.8,51,0.00,OVC,SCT,0.00,0.0,WeatherDisplay:10.37,2013-09-14 12:51:00,
2013-09-14 07:56:00,56.5,39.1,30.00,SSE,158,3.3,4.6,52,0.00,OVC,SCT,0.00,0.0,WeatherDisplay:10.37,2013-09-14 12:56:00,
2013-09-14 08:01:00,56.7,39.2,30.00,ENE,68,3.6,5.8,52,0.00,OVC,SCT,0.00,0.0,WeatherDisplay:10.37,2013-09-14 13:01:00,
2013-09-14 08:06:00,56.8,38.9,30.00,ESE,112,5.4,8.1,51,0.00,OVC,SCT,0.00,0.0,WeatherDisplay:10.37,2013-09-14 13:06:00,
2013-09-14 08:11:00,56.8,38.9,30.00,SSW,202,3.6,5.8,51,0.00,OVC,SCT,0.00,0.0,WeatherDisplay:10.37,2013-09-14 13:11:00,
2013-09-14 08:16:00,56.8,38.9,30.00,ESE,112,3.6,5.8,51,0.00,OVC,SCT,0.00,0.0,WeatherDisplay:10.37,2013-09-14 13:16:00,
2013-09-14 08:21:00,57.0,39.1,30.00,SSE,158,3.8,5.8,51,0.00,OVC,SCT,0.00,0.0,WeatherDisplay:10.37,2013-09-14 13:21:00,
2013-09-14 08:26:00,57.2,39.7,30.00,SSE,158,3.3,4.6,52,0.00,OVC,SCT,0.00,0.0,WeatherDisplay:10.37,2013-09-14 13:26:00,
2013-09-14 08:31:00,57.6,39.6,30.00,ENE,68,3.8,4.7,51,0.00,OVC,SCT,0.00,0.0,WeatherDisplay:10.37,2013-09-14 13:31:00,
2013-09-14 08:36:00,57.7,39.7,30.00,SSE,158,3.8,5.8,51,0.00,OVC,SCT,0.00,0.0,WeatherDisplay:10.37,2013-09-14 13:36:00,
2013-09-14 08:41:00,58.1,39.5,30.00,ESE,112,2.9,4.6,50,0.00,OVC,SCT,0.00,0.0,WeatherDisplay:10.37,2013-09-14 13:41:00,
2013-09-14 08:46:00,58.3,39.7,30.03,ESE,112,3.1,6.9,50,0.00,OVC,SCT,0.00,0.0,WeatherDisplay:10.37,2013-09-14 13:46:00,
2013-09-14 08:51:00,58.5,39.9,30.03,ESE,112,3.8,5.8,50,0.00,OVC,SCT,0.00,0.0,WeatherDisplay:10.37,2013-09-14 13:51:00,
2013-09-14 08:56:00,58.6,40.0,30.03,South,180,4.3,5.8,50,0.00,OVC,SCT,0.00,0.0,WeatherDisplay:10.37,2013-09-14 13:56:00,
2013-09-14 09:01:00,59.5,40.3,30.00,ESE,112,4.9,5.8,49,0.00,OVC,SCT,0.00,0.0,WeatherDisplay:10.37,2013-09-14 14:01:00,
2013-09-14 09:06:00,59.7,39.4,30.00,WNW,292,3.6,6.9,47,0.00,OVC,SCT,0.00,0.0,WeatherDisplay:10.37,2013-09-14 14:06:00,
2013-09-14 09:11:00,60.6,40.3,30.00,South,180,4.7,6.9,47,0.00,OVC,SCT,0.00,0.0,WeatherDisplay:10.37,2013-09-14 14:11:00,
2013-09-14 09:16:00,61.0,40.0,30.00,SSW,202,2.9,5.8,46,0.00,OVC,SCT,0.00,0.0,WeatherDisplay:10.37,2013-09-14 14:16:00,
2013-09-14 09:21:00,61.9,40.3,30.00,SW,225,4.3,8.1,45,0.00,OVC,SCT,0.00,0.0,WeatherDisplay:10.37,2013-09-14 14:21:00,
2013-09-14 09:26:00,62.4,40.2,30.00,SSE,158,4.9,8.1,44,0.00,OVC,SCT,0.00,0.0,WeatherDisplay:10.37,2013-09-14 14:26:00,
2013-09-14 09:31:00,62.4,39.0,30.00,SE,135,7.6,9.2,42,0.00,OVC,SCT,0.00,0.0,WeatherDisplay:10.37,2013-09-14 14:31:00,
2013-09-14 09:36:00,63.5,40.0,30.00,SSE,158,5.4,7.8,42,0.00,OVC,SCT,0.00,0.0,WeatherDisplay:10.37,2013-09-14 14:36:00,
2013-09-14 09:41:00,63.5,38.7,30.00,SSW,202,5.9,9.2,40,0.00,OVC,SCT,0.00,0.0,WeatherDisplay:10.37,2013-09-14 14:41:00,
2013-09-14 09:46:00,63.9,39.1,30.00,SSE,158,6.9,10.4,40,0.00,OVC,SCT,0.00,0.0,WeatherDisplay:10.37,2013-09-14 14:46:00,
2013-09-14 09:51:00,63.9,39.1,30.00,South,180,5.4,8.1,40,0.00,OVC,SCT,0.00,0.0,WeatherDisplay:10.37,2013-09-14 14:51:00,
2013-09-14 09:56:00,63.9,38.4,30.00,South,180,5.6,8.1,39,0.00,OVC,SCT,0.00,0.0,WeatherDisplay:10.37,2013-09-14 14:56:00,
2013-09-14 10:01:00,64.2,38.7,30.00,SE,135,7.1,8.1,39,0.00,OVC,SCT,0.00,0.0,WeatherDisplay:10.37,2013-09-14 15:01:00,
2013-09-14 10:06:00,64.6,38.4,30.00,SSW,202,6.2,6.9,38,0.00,OVC,SCT,0.00,100.0,WeatherDisplay:10.37,2013-09-14 15:06:00,
2013-09-14 10:11:00,65.1,40.2,30.00,South,180,5.6,8.1,40,0.00,OVC,SCT,0.00,100.0,WeatherDisplay:10.37,2013-09-14 15:11:00,
2013-09-14 10:16:00,65.8,39.5,30.00,WSW,248,4.9,6.9,38,0.00,OVC,SCT,0.00,100.0,WeatherDisplay:10.37,2013-09-14 15:16:00,
2013-09-14 10:21:00,65.8,38.1,30.00,ESE,112,6.9,10.4,36,0.00,OVC,SCT,0.00,100.0,WeatherDisplay:10.37,2013-09-14 15:21:00,
2013-09-14 10:26:00,65.8,38.1,30.00,SSW,202,7.1,8.1,36,0.00,OVC,SCT,0.00,0.0,WeatherDisplay:10.37,2013-09-14 15:26:00,
2013-09-14 10:31:00,65.8,38.8,30.00,East,90,7.1,11.8,37,0.00,OVC,SCT,0.00,100.0,WeatherDisplay:10.37,2013-09-14 15:31:00,
2013-09-14 10:36:00,66.4,38.6,30.00,SSW,202,6.9,9.2,36,0.00,OVC,SCT,0.00,100.0,WeatherDisplay:10.37,2013-09-14 15:36:00,
2013-09-14 10:41:00,66.9,39.8,30.00,SSE,158,4.9,11.8,37,0.00,OVC,SCT,0.00,100.0,WeatherDisplay:10.37,2013-09-14 15:41:00,
2013-09-14 10:46:00,66.9,38.4,29.97,SSW,202,4.9,6.9,35,0.00,OVC,SCT,0.00,100.0,WeatherDisplay:10.37,2013-09-14 15:46:00,
2013-09-14 10:51:00,67.5,38.8,29.97,SSE,158,6.9,8.1,35,0.00,OVC,SCT,0.00,200.0,WeatherDisplay:10.37,2013-09-14 15:51:00,
2013-09-14 10:56:00,67.6,39.0,29.97,SSE,158,7.1,12.7,35,0.00,OVC,SCT,0.00,100.0,WeatherDisplay:10.37,2013-09-14 15:56:00,
2013-09-14 11:01:00,68.0,38.6,29.97,SSE,158,6.4,9.2,34,0.00,OVC,SCT,0.00,200.0,WeatherDisplay:10.37,2013-09-14 16:01:00,
2013-09-14 11:06:00,68.7,39.2,29.97,SSE,158,4.5,8.1,34,0.00,OVC,SCT,0.00,200.0,WeatherDisplay:10.37,2013-09-14 16:06:00,
2013-09-14 11:11:00,69.1,39.5,29.97,ESE,112,6.2,10.7,34,0.00,OVC,SCT,0.00,200.0,WeatherDisplay:10.37,2013-09-14 16:11:00,
2013-09-14 11:16:00,69.3,39.7,29.97,SSW,202,6.0,9.2,34,0.00,OVC,SCT,0.00,200.0,WeatherDisplay:10.37,2013-09-14 16:16:00,
2013-09-14 11:21:00,69.8,40.2,29.97,SSE,158,4.7,6.9,34,0.00,OVC,SCT,0.00,200.0,WeatherDisplay:10.37,2013-09-14 16:21:00,
2013-09-14 11:26:00,70.2,39.7,29.97,SSW,202,7.1,10.4,33,0.00,OVC,SCT,0.00,200.0,WeatherDisplay:10.37,2013-09-14 16:26:00,
2013-09-14 11:31:00,70.3,39.9,29.97,SSE,158,6.0,10.0,33,0.00,OVC,SCT,0.00,200.0,WeatherDisplay:10.37,2013-09-14 16:31:00,
2013-09-14 11:36:00,70.5,40.0,29.97,South,180,5.6,10.4,33,0.00,OVC,SCT,0.00,100.0,WeatherDisplay:10.37,2013-09-14 16:36:00,
2013-09-14 11:41:00,70.0,38.8,29.97,SSE,158,6.0,9.8,32,0.00,OVC,SCT,0.00,100.0,WeatherDisplay:10.37,2013-09-14 16:41:00,
2013-09-14 11:46:00,69.6,39.2,29.97,SSW,202,5.9,8.1,33,0.00,OVC,SCT,0.00,100.0,WeatherDisplay:10.37,2013-09-14 16:46:00,
2013-09-14 11:51:00,69.6,39.2,29.97,SE,135,5.4,8.1,33,0.00,OVC,SCT,0.00,100.0,WeatherDisplay:10.37,2013-09-14 16:51:00,
2013-09-14 11:56:00,69.8,39.4,29.97,ESE,112,4.5,5.8,33,0.00,OVC,SCT,0.00,100.0,WeatherDisplay:10.37,2013-09-14 16:56:00,
2013-09-14 12:01:00,70.3,39.9,29.97,SE,135,7.1,9.8,33,0.00,OVC,SCT,0.00,200.0,WeatherDisplay:10.37,2013-09-14 17:01:00,
2013-09-14 12:06:00,70.5,39.2,29.97,SSW,202,7.4,13.8,32,0.00,OVC,SCT,0.00,100.0,WeatherDisplay:10.37,2013-09-14 17:06:00,
2013-09-14 12:11:00,71.2,40.6,29.97,SSW,202,7.1,9.2,33,0.00,OVC,SCT,0.00,200.0,WeatherDisplay:10.37,2013-09-14 17:11:00,
2013-09-14 12:16:00,70.9,39.5,29.94,South,180,9.0,10.4,32,0.00,OVC,SCT,0.00,100.0,WeatherDisplay:10.37,2013-09-14 17:16:00,
2013-09-14 12:21:00,71.1,39.7,29.94,SW,225,8.5,8.5,32,0.00,OVC,SCT,0.00,100.0,WeatherDisplay:10.37,2013-09-14 17:21:00,
2013-09-14 12:26:00,71.4,40.0,29.94,SSW,202,6.4,9.2,32,0.00,OVC,SCT,0.00,200.0,WeatherDisplay:10.37,2013-09-14 17:26:00,
2013-09-14 12:31:00,71.6,40.2,29.94,SSE,158,6.2,12.7,32,0.00,OVC,SCT,0.00,200.0,WeatherDisplay:10.37,2013-09-14 17:31:00,
2013-09-14 12:36:00,71.8,40.3,29.94,SSE,158,8.7,11.5,32,0.00,OVC,SCT,0.00,200.0,WeatherDisplay:10.37,2013-09-14 17:36:00,
2013-09-14 12:41:00,71.6,39.3,29.94,WSW,248,7.1,8.1,31,0.00,OVC,SCT,0.00,200.0,WeatherDisplay:10.37,2013-09-14 17:41:00,
2013-09-14 12:46:00,72.1,40.6,29.91,SSE,158,5.9,8.1,32,0.00,OVC,SCT,0.00,200.0,WeatherDisplay:10.37,2013-09-14 17:46:00,
2013-09-14 12:51:00,72.1,39.8,29.91,ESE,112,8.7,12.7,31,0.00,OVC,SCT,0.00,200.0,WeatherDisplay:10.37,2013-09-14 17:51:00,
2013-09-14 12:56:00,72.5,40.1,29.91,South,180,6.7,9.2,31,0.00,OVC,SCT,0.00,200.0,WeatherDisplay:10.37,2013-09-14 17:56:00,
2013-09-14 13:01:00,72.5,41.0,29.94,East,90,8.1,11.5,32,0.00,OVC,SCT,0.00,200.0,WeatherDisplay:10.37,2013-09-14 18:01:00,
2013-09-14 13:06:00,72.1,39.8,29.94,SSW,202,5.9,10.4,31,0.00,OVC,SCT,0.00,100.0,WeatherDisplay:10.37,2013-09-14 18:06:00,
2013-09-14 13:11:00,72.3,40.8,29.94,SSE,158,4.7,6.9,32,0.00,OVC,SCT,0.00,100.0,WeatherDisplay:10.37,2013-09-14 18:11:00,
2013-09-14 13:16:00,72.1,39.8,29.94,South,180,6.4,9.2,31,0.00,OVC,SCT,0.00,100.0,WeatherDisplay:10.37,2013-09-14 18:16:00,
2013-09-14 13:21:00,72.1,39.8,29.94,ESE,112,7.1,12.7,31,0.00,OVC,SCT,0.00,100.0,WeatherDisplay:10.37,2013-09-14 18:21:00,
2013-09-14 13:26:00,72.7,40.3,29.94,SSE,158,4.0,8.1,31,0.00,OVC,SCT,0.00,100.0,WeatherDisplay:10.37,2013-09-14 18:26:00,
2013-09-14 13:31:00,73.2,40.8,29.94,SSW,202,5.9,8.1,31,0.00,OVC,SCT,0.00,200.0,WeatherDisplay:10.37,2013-09-14 18:31:00,
2013-09-14 13:36:00,73.8,41.2,29.94,SSW,202,6.9,10.4,31,0.00,OVC,SCT,0.00,200.0,WeatherDisplay:10.37,2013-09-14 18:36:00,
2013-09-14 13:41:00,74.5,40.1,29.94,South,180,6.4,10.4,29,0.00,OVC,SCT,0.00,200.0,WeatherDisplay:10.37,2013-09-14 18:41:00,
2013-09-14 13:46:00,74.1,39.8,29.91,SSE,158,4.3,6.0,29,0.00,OVC,SCT,0.00,100.0,WeatherDisplay:10.37,2013-09-14 18:46:00,
2013-09-14 13:51:00,73.8,38.6,29.91,South,180,6.9,8.1,28,0.00,OVC,SCT,0.00,100.0,WeatherDisplay:10.37,2013-09-14 18:51:00,
2013-09-14 13:56:00,73.9,39.7,29.91,ESE,112,6.0,6.9,29,0.00,OVC,SCT,0.00,200.0,WeatherDisplay:10.37,2013-09-14 18:56:00,
2013-09-14 14:01:00,74.5,41.0,29.91,WSW,248,7.6,9.2,30,0.00,OVC,SCT,0.00,200.0,WeatherDisplay:10.37,2013-09-14 19:01:00,
2013-09-14 14:06:00,74.7,39.4,29.91,SSE,158,7.1,10.4,28,0.00,OVC,SCT,0.00,100.0,WeatherDisplay:10.37,2013-09-14 19:06:00,
2013-09-14 14:11:00,74.1,38.9,29.91,SSW,202,8.1,10.4,28,0.00,OVC,SCT,0.00,100.0,WeatherDisplay:10.37,2013-09-14 19:11:00,
2013-09-14 14:16:00,73.9,38.8,29.88,SSW,202,9.0,11.5,28,0.00,OVC,SCT,0.00,100.0,WeatherDisplay:10.37,2013-09-14 19:16:00,
2013-09-14 14:21:00,73.9,36.9,29.88,SSW,202,7.4,13.8,26,0.00,OVC,SCT,0.00,100.0,WeatherDisplay:10.37,2013-09-14 19:21:00,
2013-09-14 14:26:00,74.3,40.0,29.88,SSE,158,7.1,10.4,29,0.00,OVC,SCT,0.00,100.0,WeatherDisplay:10.37,2013-09-14 19:26:00,
2013-09-14 14:31:00,74.8,39.5,29.88,SSE,158,6.4,10.4,28,0.00,OVC,SCT,0.00,200.0,WeatherDisplay:10.37,2013-09-14 19:31:00,
2013-09-14 14:36:00,74.8,37.6,29.88,SSE,158,6.2,10.4,26,0.00,OVC,SCT,0.00,100.0,WeatherDisplay:10.37,2013-09-14 19:36:00,
2013-09-14 14:41:00,74.8,39.5,29.88,SSW,202,7.6,10.4,28,0.00,OVC,SCT,0.00,200.0,WeatherDisplay:10.37,2013-09-14 19:41:00,
2013-09-14 14:46:00,75.7,39.4,29.85,South,180,6.7,12.7,27,0.00,OVC,SCT,0.00,200.0,WeatherDisplay:10.37,2013-09-14 19:46:00,
2013-09-14 14:51:00,76.1,39.7,29.85,SSE,158,6.4,10.4,27,0.00,OVC,SCT,0.00,100.0,WeatherDisplay:10.37,2013-09-14 19:51:00,
2013-09-14 14:56:00,75.9,38.6,29.85,SSW,202,8.5,10.4,26,0.00,OVC,SCT,0.00,300.0,WeatherDisplay:10.37,2013-09-14 19:56:00,
2013-09-14 15:01:00,76.5,39.0,29.88,SSW,202,7.1,9.2,26,0.00,OVC,SCT,0.00,200.0,WeatherDisplay:10.37,2013-09-14 20:01:00,
2013-09-14 15:06:00,75.6,37.2,29.88,South,180,8.1,13.8,25,0.00,OVC,SCT,0.00,100.0,WeatherDisplay:10.37,2013-09-14 20:06:00,
2013-09-14 15:11:00,75.9,38.6,29.88,WSW,248,5.6,6.9,26,0.00,OVC,SCT,0.00,100.0,WeatherDisplay:10.37,2013-09-14 20:11:00,
2013-09-14 15:16:00,75.7,38.4,29.88,South,180,7.1,8.1,26,0.00,OVC,SCT,0.00,100.0,WeatherDisplay:10.37,2013-09-14 20:16:00,
2013-09-14 15:21:00,75.6,39.2,29.88,SSE,158,6.0,9.2,27,0.00,OVC,SCT,0.00,200.0,WeatherDisplay:10.37,2013-09-14 20:21:00,
2013-09-14 15:26:00,75.7,39.4,29.88,SSW,202,4.9,8.1,27,0.00,OVC,SCT,0.00,100.0,WeatherDisplay:10.37,2013-09-14 20:26:00,
2013-09-14 15:31:00,75.9,38.6,29.88,South,180,5.4,9.2,26,0.00,OVC,SCT,0.00,100.0,WeatherDisplay:10.37,2013-09-14 20:31:00,
2013-09-14 15:36:00,75.6,37.2,29.88,South,180,7.4,10.4,25,0.00,OVC,SCT,0.00,0.0,WeatherDisplay:10.37,2013-09-14 20:36:00,
2013-09-14 15:41:00,75.0,37.8,29.88,SW,225,6.9,9.2,26,0.00,OVC,SCT,0.00,0.0,WeatherDisplay:10.37,2013-09-14 20:41:00,
2013-09-14 15:46:00,75.0,37.8,29.85,SSE,158,5.4,6.9,26,0.00,OVC,SCT,0.00,0.0,WeatherDisplay:10.37,2013-09-14 20:46:00,
2013-09-14 15:51:00,75.2,37.9,29.85,SSE,158,4.5,8.1,26,0.00,OVC,SCT,0.00,100.0,WeatherDisplay:10.37,2013-09-14 20:51:00,
2013-09-14 15:56:00,75.4,38.1,29.85,ESE,112,4.9,8.1,26,0.00,OVC,SCT,0.00,0.0,WeatherDisplay:10.37,2013-09-14 20:56:00,
2013-09-14 16:01:00,75.4,38.1,29.85,WSW,248,5.4,8.1,26,0.00,OVC,SCT,0.00,0.0,WeatherDisplay:10.37,2013-09-14 21:01:00,
2013-09-14 16:06:00,75.4,38.1,29.85,SSE,158,5.9,8.1,26,0.00,OVC,SCT,0.00,0.0,WeatherDisplay:10.37,2013-09-14 21:06:00,
2013-09-14 16:11:00,75.4,38.1,29.85,South,180,4.5,6.9,26,0.00,OVC,SCT,0.00,0.0,WeatherDisplay:10.37,2013-09-14 21:11:00,
2013-09-14 16:16:00,75.4,39.1,29.85,SSW,202,4.7,5.8,27,0.00,OVC,SCT,0.00,0.0,WeatherDisplay:10.37,2013-09-14 21:16:00,
2013-09-14 16:21:00,75.6,39.2,29.85,South,180,4.7,7.4,27,0.00,OVC,SCT,0.00,0.0,WeatherDisplay:10.37,2013-09-14 21:21:00,
2013-09-14 16:26:00,75.6,38.2,29.85,SSE,158,4.5,8.1,26,0.00,OVC,SCT,0.00,0.0,WeatherDisplay:10.37,2013-09-14 21:26:00,
2013-09-14 16:31:00,75.6,39.2,29.85,SSE,158,2.6,8.1,27,0.00,OVC,SCT,0.00,0.0,WeatherDisplay:10.37,2013-09-14 21:31:00,
2013-09-14 16:36:00,75.4,38.1,29.85,SSE,158,5.4,8.1,26,0.00,OVC,SCT,0.00,0.0,WeatherDisplay:10.37,2013-09-14 21:36:00,
2013-09-14 16:41:00,75.4,38.1,29.85,SSW,202,4.0,5.8,26,0.00,OVC,SCT,0.00,0.0,WeatherDisplay:10.37,2013-09-14 21:41:00,
2013-09-14 16:46:00,75.4,38.1,29.85,SSW,202,4.5,9.2,26,0.00,OVC,SCT,0.00,0.0,WeatherDisplay:10.37,2013-09-14 21:46:00,
2013-09-14 16:51:00,75.2,38.9,29.85,SSW,202,3.6,6.9,27,0.00,OVC,SCT,0.00,0.0,WeatherDisplay:10.37,2013-09-14 21:51:00,
2013-09-14 16:56:00,74.8,39.5,29.85,SE,135,4.5,8.1,28,0.00,OVC,SCT,0.00,0.0,WeatherDisplay:10.37,2013-09-14 21:56:00,
2013-09-14 17:01:00,75.0,38.8,29.85,SSW,202,6.4,8.1,27,0.00,OVC,SCT,0.00,0.0,WeatherDisplay:10.37,2013-09-14 22:01:00,
2013-09-14 17:06:00,75.0,39.7,29.85,South,180,4.7,8.1,28,0.00,OVC,SCT,0.00,0.0,WeatherDisplay:10.37,2013-09-14 22:06:00,
2013-09-14 17:11:00,74.8,38.6,29.85,South,180,6.2,10.4,27,0.00,OVC,SCT,0.00,0.0,WeatherDisplay:10.37,2013-09-14 22:11:00,
2013-09-14 17:16:00,74.8,38.6,29.83,WSW,248,4.7,7.1,27,0.00,OVC,SCT,0.00,0.0,WeatherDisplay:10.37,2013-09-14 22:16:00,
2013-09-14 17:21:00,74.7,39.4,29.83,West,270,5.6,8.1,28,0.00,OVC,SCT,0.00,0.0,WeatherDisplay:10.37,2013-09-14 22:21:00,
2013-09-14 17:26:00,74.5,39.2,29.83,SSW,202,3.8,5.8,28,0.00,OVC,SCT,0.00,0.0,WeatherDisplay:10.37,2013-09-14 22:26:00,
2013-09-14 17:31:00,74.5,40.1,29.83,NNE,22,3.1,4.6,29,0.00,OVC,SCT,0.00,0.0,WeatherDisplay:10.37,2013-09-14 22:31:00,
2013-09-14 17:36:00,74.5,41.0,29.83,ESE,112,2.9,5.8,30,0.00,OVC,SCT,0.00,0.0,WeatherDisplay:10.37,2013-09-14 22:36:00,
2013-09-14 17:41:00,74.5,41.0,29.83,SSW,202,3.3,3.5,30,0.00,OVC,SCT,0.00,0.0,WeatherDisplay:10.37,2013-09-14 22:41:00,
2013-09-14 17:46:00,74.3,40.8,29.83,SSE,158,3.8,4.7,30,0.00,OVC,SCT,0.00,0.0,WeatherDisplay:10.37,2013-09-14 22:46:00,
2013-09-14 17:51:00,74.3,40.8,29.83,ESE,112,5.6,7.4,30,0.00,OVC,SCT,0.00,0.0,WeatherDisplay:10.37,2013-09-14 22:51:00,
2013-09-14 17:56:00,74.3,39.1,29.83,ESE,112,6.4,8.1,28,0.00,OVC,SCT,0.00,0.0,WeatherDisplay:10.37,2013-09-14 22:56:00,
2013-09-14 18:01:00,74.1,38.9,29.83,South,180,4.3,6.0,28,0.00,OVC,SCT,0.00,0.0,WeatherDisplay:10.37,2013-09-14 23:01:00,
2013-09-14 18:06:00,74.1,38.9,29.83,South,180,4.7,6.9,28,0.00,OVC,SCT,0.00,0.0,WeatherDisplay:10.37,2013-09-14 23:06:00,
2013-09-14 18:11:00,73.9,38.8,29.83,SSW,202,4.0,6.0,28,0.00,OVC,SCT,0.00,0.0,WeatherDisplay:10.37,2013-09-14 23:11:00,
2013-09-14 18:16:00,73.8,40.4,29.83,SSE,158,2.4,3.5,30,0.00,OVC,SCT,0.00,0.0,WeatherDisplay:10.37,2013-09-14 23:16:00,
2013-09-14 18:21:00,73.8,41.2,29.83,SSW,202,2.9,5.8,31,0.00,OVC,SCT,0.00,0.0,WeatherDisplay:10.37,2013-09-14 23:21:00,
2013-09-14 18:26:00,73.6,41.1,29.83,SSE,158,3.6,4.6,31,0.00,OVC,SCT,0.00,0.0,WeatherDisplay:10.37,2013-09-14 23:26:00,
2013-09-14 18:31:00,73.2,42.4,29.83,SSW,202,1.4,2.3,33,0.00,OVC,SCT,0.00,0.0,WeatherDisplay:10.37,2013-09-14 23:31:00,
2013-09-14 18:36:00,72.9,42.1,29.83,SSE,158,0.0,1.1,33,0.00,OVC,SCT,0.00,0.0,WeatherDisplay:10.37,2013-09-14 23:36:00,
2013-09-14 18:41:00,72.9,42.8,29.80,SSE,158,0.0,2.3,34,0.00,OVC,SCT,0.00,0.0,WeatherDisplay:10.37,2013-09-14 23:41:00,
2013-09-14 18:46:00,72.9,42.1,29.80,SSE,158,2.9,4.6,33,0.00,OVC,SCT,0.00,0.0,WeatherDisplay:10.37,2013-09-14 23:46:00,
2013-09-14 18:51:00,72.9,42.1,29.80,SSE,158,1.4,2.9,33,0.00,OVC,SCT,0.00,0.0,WeatherDisplay:10.37,2013-09-14 23:51:00,
2013-09-14 18:56:00,72.9,42.1,29.80,SSE,158,2.4,2.9,33,0.00,OVC,SCT,0.00,0.0,WeatherDisplay:10.37,2013-09-14 23:56:00,
2013-09-14 19:01:00,72.9,41.3,29.80,SSE,158,3.1,5.8,32,0.00,OVC,SCT,0.00,0.0,WeatherDisplay:10.37,2013-09-15 00:01:00,
2013-09-14 19:06:00,72.9,41.3,29.80,SSE,158,2.4,5.8,32,0.00,SCT,,0.00,0.0,WeatherDisplay:10.37,2013-09-15 00:06:00,
2013-09-14 19:11:00,72.7,41.1,29.83,East,90,3.8,4.6,32,0.00,SCT,,0.00,0.0,WeatherDisplay:10.37,2013-09-15 00:11:00,
2013-09-14 19:16:00,72.5,41.0,29.83,ESE,112,4.3,6.2,32,0.00,SCT,,0.00,0.0,WeatherDisplay:10.37,2013-09-15 00:16:00,
2013-09-14 19:21:00,72.3,40.8,29.83,ESE,112,2.9,4.6,32,0.00,FEW,SCT,0.00,0.0,WeatherDisplay:10.37,2013-09-15 00:21:00,
2013-09-14 19:26:00,72.1,40.6,29.83,SSE,158,2.2,4.6,32,0.00,FEW,SCT,0.00,0.0,WeatherDisplay:10.37,2013-09-15 00:26:00,
2013-09-14 19:31:00,72.0,40.5,29.83,ESE,112,3.3,4.6,32,0.00,FEW,SCT,0.00,0.0,WeatherDisplay:10.37,2013-09-15 00:31:00,
2013-09-14 19:36:00,71.8,40.3,29.83,SSE,158,3.8,6.2,32,0.00,FEW,SCT,0.00,0.0,WeatherDisplay:10.37,2013-09-15 00:36:00,
2013-09-14 19:47:00,71.8,40.3,29.83,North,0,0.0,3.5,32,0.00,OVC,SCT,0.00,0.0,WeatherDisplay:10.37,2013-09-15 00:47:00,
2013-09-14 19:52:00,71.4,40.8,29.80,East,90,4.5,5.8,33,0.00,OVC,SCT,0.00,0.0,WeatherDisplay:10.37,2013-09-15 00:52:00,
2013-09-14 19:57:00,71.2,40.6,29.80,ESE,112,5.6,5.8,33,0.00,OVC,SCT,0.00,0.0,WeatherDisplay:10.37,2013-09-15 00:57:00,
2013-09-14 20:02:00,71.2,40.6,29.80,ESE,112,4.3,4.6,33,0.00,CLR,SCT,0.00,0.0,WeatherDisplay:10.37,2013-09-15 01:02:00,
2013-09-14 20:07:00,71.1,40.5,29.80,SSE,158,3.6,5.4,33,0.00,CLR,SCT,0.00,0.0,WeatherDisplay:10.37,2013-09-15 01:07:00,
2013-09-14 20:12:00,70.9,40.3,29.80,ESE,112,4.7,5.8,33,0.00,CLR,SCT,0.00,0.0,WeatherDisplay:10.37,2013-09-15 01:12:00,
2013-09-14 20:17:00,70.7,40.9,29.80,SE,135,5.6,5.8,34,0.00,CLR,SCT,0.00,0.0,WeatherDisplay:10.37,2013-09-15 01:17:00,
2013-09-14 20:22:00,70.5,40.8,29.80,East,90,4.5,8.1,34,0.00,CLR,SCT,0.00,0.0,WeatherDisplay:10.37,2013-09-15 01:22:00,
2013-09-14 20:27:00,70.3,41.4,29.80,SSE,158,4.9,5.8,35,0.00,CLR,SCT,0.00,0.0,WeatherDisplay:10.37,2013-09-15 01:27:00,
2013-09-14 20:32:00,70.2,41.2,29.80,SSE,158,3.8,5.8,35,0.00,CLR,SCT,0.00,0.0,WeatherDisplay:10.37,2013-09-15 01:32:00,
2013-09-14 20:37:00,70.0,41.1,29.80,SSE,158,3.8,5.8,35,0.00,CLR,SCT,0.00,0.0,WeatherDisplay:10.37,2013-09-15 01:37:00,
2013-09-14 20:42:00,70.0,41.1,29.83,ESE,112,4.0,8.1,35,0.00,CLR,SCT,0.00,0.0,WeatherDisplay:10.37,2013-09-15 01:42:00,
2013-09-14 20:47:00,70.0,41.1,29.83,East,90,4.0,8.1,35,0.00,CLR,SCT,0.00,0.0,WeatherDisplay:10.37,2013-09-15 01:47:00,
2013-09-14 20:52:00,69.8,40.9,29.83,SSE,158,4.3,5.8,35,0.00,CLR,SCT,0.00,0.0,WeatherDisplay:10.37,2013-09-15 01:52:00,
2013-09-14 20:57:00,69.8,40.9,29.83,South,180,3.1,3.5,35,0.00,CLR,SCT,0.00,0.0,WeatherDisplay:10.37,2013-09-15 01:57:00,
2013-09-14 21:02:00,69.6,41.5,29.83,SSE,158,3.6,6.2,36,0.00,CLR,SCT,0.00,0.0,WeatherDisplay:10.37,2013-09-15 02:02:00,
2013-09-14 21:07:00,69.4,41.3,29.83,SSE,158,5.4,5.4,36,0.00,CLR,SCT,0.00,0.0,WeatherDisplay:10.37,2013-09-15 02:07:00,
2013-09-14 21:12:00,69.4,41.3,29.83,SSE,158,4.0,4.6,36,0.00,CLR,SCT,0.00,0.0,WeatherDisplay:10.37,2013-09-15 02:12:00,
2013-09-14 21:17:00,69.4,41.3,29.83,ESE,112,4.3,6.9,36,0.00,CLR,SCT,0.00,0.0,WeatherDisplay:10.37,2013-09-15 02:17:00,
2013-09-14 21:22:00,69.3,41.2,29.83,South,180,4.0,6.0,36,0.00,CLR,SCT,0.00,0.0,WeatherDisplay:10.37,2013-09-15 02:22:00,
2013-09-14 21:27:00,69.1,41.7,29.80,SSE,158,3.1,4.6,37,0.00,CLR,SCT,0.00,0.0,WeatherDisplay:10.37,2013-09-15 02:27:00,
2013-09-14 21:32:00,69.1,41.7,29.80,SSW,202,4.0,6.9,37,0.00,CLR,SCT,0.00,0.0,WeatherDisplay:10.37,2013-09-15 02:32:00,
2013-09-14 21:37:00,68.9,41.5,29.80,SSW,202,4.0,5.8,37,0.00,CLR,SCT,0.00,0.0,WeatherDisplay:10.37,2013-09-15 02:37:00,
2013-09-14 21:42:00,68.9,41.5,29.83,SSE,158,3.1,4.6,37,0.00,CLR,SCT,0.00,0.0,WeatherDisplay:10.37,2013-09-15 02:42:00,
2013-09-14 21:47:00,68.7,41.4,29.83,SE,135,3.8,5.8,37,0.00,CLR,SCT,0.00,0.0,WeatherDisplay:10.37,2013-09-15 02:47:00,
2013-09-14 21:52:00,68.7,41.4,29.83,SSE,158,3.3,5.8,37,0.00,CLR,SCT,0.00,0.0,WeatherDisplay:10.37,2013-09-15 02:52:00,
2013-09-14 21:57:00,68.7,41.4,29.83,SSW,202,2.4,4.6,37,0.00,CLR,SCT,0.00,0.0,WeatherDisplay:10.37,2013-09-15 02:57:00,
2013-09-14 22:02:00,68.7,41.4,29.83,ENE,68,2.6,4.6,37,0.00,CLR,SCT,0.00,0.0,WeatherDisplay:10.37,2013-09-15 03:02:00,
2013-09-14 22:07:00,68.5,41.9,29.83,ESE,112,3.3,4.6,38,0.00,CLR,SCT,0.00,0.0,WeatherDisplay:10.37,2013-09-15 03:07:00,
2013-09-14 22:12:00,68.5,41.9,29.83,South,180,2.2,3.6,38,0.00,CLR,SCT,0.00,0.0,WeatherDisplay:10.37,2013-09-15 03:12:00,
2013-09-14 22:17:00,68.4,41.8,29.83,East,90,2.4,4.7,38,0.00,CLR,SCT,0.00,0.0,WeatherDisplay:10.37,2013-09-15 03:17:00,
2013-09-14 22:22:00,68.4,41.8,29.83,WNW,292,2.2,4.6,38,0.00,CLR,SCT,0.00,0.0,WeatherDisplay:10.37,2013-09-15 03:22:00,
2013-09-14 22:27:00,68.2,41.6,29.80,ESE,112,2.4,3.5,38,0.00,CLR,SCT,0.00,0.0,WeatherDisplay:10.37,2013-09-15 03:27:00,
2013-09-14 22:32:00,68.2,42.3,29.80,ESE,112,2.2,4.6,39,0.00,CLR,SCT,0.00,0.0,WeatherDisplay:10.37,2013-09-15 03:32:00,
2013-09-14 22:37:00,68.2,42.3,29.80,WSW,248,2.2,3.5,39,0.00,CLR,SCT,0.00,0.0,WeatherDisplay:10.37,2013-09-15 03:37:00,
2013-09-14 22:42:00,68.2,42.3,29.83,ESE,112,3.1,4.6,39,0.00,CLR,SCT,0.00,0.0,WeatherDisplay:10.37,2013-09-15 03:42:00,
2013-09-14 22:47:00,68.0,42.8,29.83,ESE,112,2.0,3.5,40,0.00,CLR,SCT,0.00,0.0,WeatherDisplay:10.37,2013-09-15 03:47:00,
2013-09-14 22:52:00,68.0,42.8,29.83,SSE,158,2.4,3.8,40,0.00,CLR,SCT,0.00,0.0,WeatherDisplay:10.37,2013-09-15 03:52:00,
2013-09-14 22:57:00,68.0,42.8,29.83,SSE,158,2.6,3.3,40,0.00,CLR,SCT,0.00,0.0,WeatherDisplay:10.37,2013-09-15 03:57:00,
2013-09-14 23:01:00,68.0,42.8,29.83,SSE,158,3.3,3.3,40,0.00,CLR,SCT,0.00,0.0,WeatherDisplay:10.37,2013-09-15 04:01:00,
2013-09-14 23:03:00,68.0,42.8,29.83,South,180,2.6,3.5,40,0.00,CLR,SCT,0.00,0.0,WeatherDisplay:10.37,2013-09-15 04:03:00,
2013-09-14 23:08:00,68.0,42.8,29.83,East,90,2.2,4.0,40,0.00,CLR,SCT,0.00,0.0,WeatherDisplay:10.37,2013-09-15 04:08:00,
2013-09-14 23:13:00,68.2,43.6,29.83,SSW,202,3.6,4.6,41,0.00,CLR,SCT,0.00,0.0,WeatherDisplay:10.37,2013-09-15 04:13:00,
2013-09-14 23:18:00,68.2,43.6,29.83,WSW,248,3.1,4.6,41,0.00,CLR,SCT,0.00,0.0,WeatherDisplay:10.37,2013-09-15 04:18:00,
2013-09-14 23:23:00,68.4,43.1,29.83,SSW,202,4.7,6.9,40,0.00,CLR,SCT,0.00,0.0,WeatherDisplay:10.37,2013-09-15 04:23:00,
2013-09-14 23:28:00,68.4,43.1,29.83,South,180,4.3,5.8,40,0.00,CLR,SCT,0.00,0.0,WeatherDisplay:10.37,2013-09-15 04:28:00,
2013-09-14 23:33:00,68.4,43.1,29.83,SSE,158,3.8,6.9,40,0.00,CLR,SCT,0.00,0.0,WeatherDisplay:10.37,2013-09-15 04:33:00,
2013-09-14 23:38:00,68.5,43.2,29.83,SSW,202,4.3,6.9,40,0.00,CLR,SCT,0.00,0.0,WeatherDisplay:10.37,2013-09-15 04:38:00,
2013-09-14 23:43:00,68.7,43.4,29.83,South,180,3.8,4.6,40,0.00,CLR,SCT,0.00,0.0,WeatherDisplay:10.37,2013-09-15 04:43:00,
2013-09-14 23:48:00,68.7,42.8,29.83,SSW,202,3.8,6.9,39,0.00,CLR,SCT,0.00,0.0,WeatherDisplay:10.37,2013-09-15 04:48:00,
2013-09-14 23:53:00,68.9,42.9,29.83,WSW,248,4.0,5.9,39,0.00,CLR,SCT,0.00,0.0,WeatherDisplay:10.37,2013-09-15 04:53:00,
2013-09-14 23:58:00,68.9,42.9,29.80,SSW,202,7.4,9.2,39,0.00,CLR,SCT,0.00,0.0,WeatherDisplay:10.37,2013-09-15 04:58:00,